createdAt,value
2023-02-11T00:00:23.217Z,100202.56
2023-02-11T00:02:29.744Z,100205.97
2023-02-11T00:04:34.929Z,100198.25
2023-02-11T00:06:39.571Z,100199.09
2023-02-11T00:08:47.222Z,100196.47
2023-02-11T00:10:54.753Z,100196.47
2023-02-11T00:12:59.595Z,100187.94
2023-02-11T00:15:04.394Z,100182.88
2023-02-11T00:17:09.589Z,100175.13
2023-02-11T00:19:14.137Z,100175.06
2023-02-11T00:21:21.332Z,100184.44
2023-02-11T00:23:26.230Z,100179.28
2023-02-11T00:25:33.668Z,100174.25
2023-02-11T00:27:39.668Z,100168.25
2023-02-11T00:29:44.584Z,100165.69
2023-02-11T00:31:49.461Z,100170.00
2023-02-11T00:33:54.832Z,100166.50
2023-02-11T00:35:59.717Z,100166.41
2023-02-11T00:38:04.603Z,100180.94
2023-02-11T00:40:09.946Z,100172.22
2023-02-11T00:42:18.094Z,100170.53
2023-02-11T00:44:23.342Z,100173.09
2023-02-11T00:46:28.455Z,100166.31
2023-02-11T00:48:33.401Z,100173.22
2023-02-11T00:50:38.855Z,100171.44
2023-02-11T00:52:46.621Z,100174.09
2023-02-11T00:54:51.465Z,100178.34
2023-02-11T00:56:56.285Z,100177.53
2023-02-11T00:59:05.358Z,100174.25
2023-02-11T01:01:10.259Z,100170.06
2023-02-11T01:03:15.054Z,100167.59
2023-02-11T01:05:20.063Z,100161.69
2023-02-11T01:07:26.498Z,100169.47
2023-02-11T01:09:32.684Z,100154.09
2023-02-11T01:11:37.537Z,100160.84
2023-02-11T01:13:42.724Z,100151.38
2023-02-11T01:15:50.508Z,100147.88
2023-02-11T01:17:55.657Z,100152.09
2023-02-11T01:20:00.493Z,100147.00
2023-02-11T01:22:05.364Z,100145.13
2023-02-11T01:24:14.105Z,100147.78
2023-02-11T01:26:22.634Z,100138.41
2023-02-11T01:28:30.793Z,100135.22
2023-02-11T01:30:38.009Z,100134.59
2023-02-11T01:32:45.446Z,100131.41
2023-02-11T01:34:50.274Z,100129.72
2023-02-11T01:37:00.046Z,100130.56
2023-02-11T01:39:08.697Z,100135.75
2023-02-11T01:41:17.431Z,100134.13
2023-02-11T01:43:23.683Z,100134.13
2023-02-11T01:45:53.521Z,100126.44
2023-02-11T01:48:02.615Z,100116.19
2023-02-11T01:50:07.928Z,100118.84
2023-02-11T01:52:16.548Z,100112.97
2023-02-11T01:54:37.639Z,100119.91
2023-02-11T01:57:02.782Z,100114.84
2023-02-11T01:59:14.580Z,100112.34
2023-02-11T02:01:26.080Z,100103.88
2023-02-11T02:03:36.493Z,100105.75
2023-02-11T02:05:50.139Z,100096.97
2023-02-11T02:08:03.202Z,100099.53
2023-02-11T02:10:14.274Z,100096.75
2023-02-11T02:12:19.121Z,100096.59
2023-02-11T02:14:24.067Z,100097.38
2023-02-11T02:16:36.459Z,100097.38
2023-02-11T02:18:51.600Z,100093.16
2023-02-11T02:21:35.072Z,100096.56
2023-02-11T02:23:59.681Z,100088.00
2023-02-11T02:26:36.864Z,100084.63
2023-02-11T02:29:22.345Z,100079.44
2023-02-11T02:31:41.881Z,100067.53
2023-02-11T02:33:56.653Z,100064.19
2023-02-11T02:36:12.302Z,100054.00
2023-02-11T02:38:21.773Z,100050.66
2023-02-11T02:40:32.328Z,100054.16
2023-02-11T02:42:37.868Z,100043.13
2023-02-11T02:44:42.823Z,100044.09
2023-02-11T02:46:47.658Z,100043.25
2023-02-11T02:48:56.759Z,100051.06
2023-02-11T02:51:12.362Z,100056.25
2023-02-11T02:53:23.393Z,100060.44
2023-02-11T02:55:40.578Z,100054.50
2023-02-11T02:58:04.569Z,100051.16
2023-02-11T03:00:18.432Z,100053.84
2023-02-11T03:02:29.491Z,100050.56
2023-02-11T03:04:46.692Z,100055.84
2023-02-11T03:06:57.986Z,100048.28
2023-02-11T03:09:11.385Z,100054.38
2023-02-11T03:11:20.093Z,100056.22
2023-02-11T03:13:32.131Z,100058.00
2023-02-11T03:15:44.086Z,100064.13
2023-02-11T03:17:53.381Z,100056.38
2023-02-11T03:20:02.746Z,100061.63
2023-02-11T03:22:14.794Z,100056.56
2023-02-11T03:24:25.241Z,100057.47
2023-02-11T03:26:36.632Z,100057.53
2023-02-11T03:28:47.499Z,100067.94
2023-02-11T03:30:59.911Z,100061.28
2023-02-11T03:33:10.156Z,100050.22
2023-02-11T03:35:22.689Z,100060.66
2023-02-11T03:37:32.370Z,100054.69
2023-02-11T03:39:42.022Z,100057.34
2023-02-11T03:41:48.717Z,100056.59
2023-02-11T03:43:56.234Z,100052.41
2023-02-11T03:46:03.184Z,100037.00
2023-02-11T03:48:14.542Z,100033.69
2023-02-11T03:50:24.189Z,100028.59
2023-02-11T03:52:30.061Z,100030.25
2023-02-11T03:54:35.040Z,100027.63
2023-02-11T03:56:46.533Z,100037.84
2023-02-11T03:58:51.827Z,100041.38
2023-02-11T04:00:56.408Z,100040.44
2023-02-11T04:03:01.352Z,100041.31
2023-02-11T04:05:06.835Z,100030.09
2023-02-11T04:07:15.304Z,100026.66
2023-02-11T04:09:20.175Z,100025.69
2023-02-11T04:11:25.032Z,100019.75
2023-02-11T04:13:29.884Z,100022.38
2023-02-11T04:15:34.799Z,100020.63
2023-02-11T04:17:39.737Z,100021.53
2023-02-11T04:19:44.835Z,100016.38
2023-02-11T04:21:49.390Z,100032.72
2023-02-11T04:23:56.833Z,100015.53
2023-02-11T04:26:01.852Z,100005.25
2023-02-11T04:28:06.771Z,100001.00
2023-02-11T04:30:12.796Z,99995.94
2023-02-11T04:32:17.844Z,99980.56
2023-02-11T04:34:22.668Z,99988.38
2023-02-11T04:36:27.592Z,99982.50
2023-02-11T04:38:32.498Z,99975.69
2023-02-11T04:40:39.957Z,99971.41
2023-02-11T04:42:44.834Z,99983.31
2023-02-11T04:44:49.707Z,99979.88
2023-02-11T04:46:54.579Z,99976.50
2023-02-11T04:48:59.462Z,99970.63
2023-02-11T04:51:04.609Z,99951.75
2023-02-11T04:53:09.191Z,99955.94
2023-02-11T04:55:14.034Z,99966.22
2023-02-11T04:57:21.562Z,99969.69
2023-02-11T04:59:27.563Z,99968.91
2023-02-11T05:01:32.448Z,99974.09
2023-02-11T05:03:38.239Z,99975.81
2023-02-11T05:05:44.224Z,99979.19
2023-02-11T05:07:49.017Z,99977.41
2023-02-11T05:09:53.880Z,99974.84
2023-02-11T05:11:58.688Z,99992.91
2023-02-11T05:14:06.105Z,99995.56
2023-02-11T05:16:11.014Z,99995.56
2023-02-11T05:18:16.309Z,99994.78
2023-02-11T05:20:21.693Z,100002.47
2023-02-11T05:22:26.566Z,99997.28
2023-02-11T05:24:31.444Z,99989.63
2023-02-11T05:26:36.275Z,99987.16
2023-02-11T05:28:41.298Z,99965.78
2023-02-11T05:30:48.794Z,99961.59
2023-02-11T05:32:54.365Z,99970.97
2023-02-11T05:34:59.357Z,99967.50
2023-02-11T05:37:04.242Z,99967.59
2023-02-11T05:39:09.111Z,99962.56
2023-02-11T05:41:14.639Z,99948.06
2023-02-11T05:43:19.510Z,99943.78
2023-02-11T05:45:24.313Z,99942.13
2023-02-11T05:47:31.855Z,99943.88
2023-02-11T05:49:37.719Z,99944.78
2023-02-11T05:51:42.527Z,99942.28
2023-02-11T05:53:47.329Z,99950.88
2023-02-11T05:55:52.475Z,99954.28
2023-02-11T05:57:57.579Z,99947.53
2023-02-11T06:00:02.449Z,99966.47
2023-02-11T06:02:17.313Z,99968.16
2023-02-11T06:04:24.777Z,99974.16
2023-02-11T06:06:29.565Z,99963.00
2023-02-11T06:08:34.438Z,99959.53
2023-02-11T06:10:42.514Z,99950.00
2023-02-11T06:12:47.683Z,99953.34
2023-02-11T06:14:52.502Z,99941.25
2023-02-11T06:16:57.313Z,99947.16
2023-02-11T06:19:02.164Z,99944.53
2023-02-11T06:21:13.133Z,99961.66
2023-02-11T06:23:17.969Z,99965.88
2023-02-11T06:25:22.992Z,99968.34
2023-02-11T06:27:27.845Z,99958.00
2023-02-11T06:29:34.079Z,99948.44
2023-02-11T06:31:43.111Z,99943.25
2023-02-11T06:33:48.043Z,99940.63
2023-02-11T06:35:53.104Z,99941.44
2023-02-11T06:38:00.893Z,99954.25
2023-02-11T06:40:05.740Z,99955.03
2023-02-11T06:42:12.090Z,99948.22
2023-02-11T06:44:16.909Z,99947.34
2023-02-11T06:46:21.819Z,99943.00
2023-02-11T06:48:27.113Z,99948.06
2023-02-11T06:50:32.106Z,99952.31
2023-02-11T06:52:36.912Z,99959.09
2023-02-11T06:54:44.398Z,99963.44
2023-02-11T06:56:49.281Z,99972.00
2023-02-11T06:58:56.273Z,99982.28
2023-02-11T07:01:01.517Z,99979.75
2023-02-11T07:03:06.637Z,99984.09
2023-02-11T07:05:12.171Z,99982.44
2023-02-11T07:07:17.073Z,99991.91
2023-02-11T07:09:22.102Z,99997.06
2023-02-11T07:11:31.561Z,99992.78
2023-02-11T07:13:36.477Z,99997.00
2023-02-11T07:15:41.434Z,100001.19
2023-02-11T07:17:46.265Z,100002.03
2023-02-11T07:19:51.141Z,99993.47
2023-02-11T07:21:56.040Z,99988.44
2023-02-11T07:24:00.854Z,99990.28
2023-02-11T07:26:06.997Z,99993.06
2023-02-11T07:28:14.656Z,99977.78
2023-02-11T07:30:19.541Z,99976.31
2023-02-11T07:32:24.436Z,99980.84
2023-02-11T07:34:29.307Z,99966.34
2023-02-11T07:36:35.188Z,99968.34
2023-02-11T07:38:40.883Z,99966.84
2023-02-11T07:40:46.405Z,99964.44
2023-02-11T07:42:51.360Z,99972.22
2023-02-11T07:44:58.784Z,99971.47
2023-02-11T07:47:03.733Z,99971.53
2023-02-11T07:49:08.623Z,99980.13
2023-02-11T07:51:15.781Z,99987.00
2023-02-11T07:53:20.625Z,99978.56
2023-02-11T07:55:25.467Z,99983.78
2023-02-11T07:57:30.507Z,99988.13
2023-02-11T07:59:35.521Z,99984.75
2023-02-11T08:01:46.079Z,99990.91
2023-02-11T08:03:51.176Z,99993.63
2023-02-11T08:05:56.094Z,99997.03
2023-02-11T08:08:00.901Z,99999.44
2023-02-11T08:10:05.813Z,100004.75
2023-02-11T08:12:10.713Z,100015.22
2023-02-11T08:14:15.932Z,100013.41
2023-02-11T08:16:22.313Z,100006.56
2023-02-11T08:18:29.876Z,99997.09
2023-02-11T08:20:34.701Z,99992.91
2023-02-11T08:22:42.562Z,99986.91
2023-02-11T08:24:47.412Z,99987.88
2023-02-11T08:26:52.517Z,99991.41
2023-02-11T08:28:58.367Z,99982.00
2023-02-11T08:31:08.842Z,99980.38
2023-02-11T08:33:13.753Z,99981.28
2023-02-11T08:35:21.349Z,99983.97
2023-02-11T08:37:26.177Z,99991.63
2023-02-11T08:39:31.031Z,99981.41
2023-02-11T08:41:36.352Z,99984.81
2023-02-11T08:43:42.396Z,99976.22
2023-02-11T08:45:47.771Z,99972.78
2023-02-11T08:47:52.604Z,99981.34
2023-02-11T08:49:57.417Z,99978.59
2023-02-11T08:52:05.022Z,99979.63
2023-02-11T08:54:10.228Z,99979.63
2023-02-11T08:56:15.828Z,99995.13
2023-02-11T08:58:21.286Z,99995.09
2023-02-11T09:00:26.419Z,99990.72
2023-02-11T09:02:31.272Z,99995.03
2023-02-11T09:04:36.144Z,99988.19
2023-02-11T09:06:41.075Z,100001.09
2023-02-11T09:08:50.745Z,99992.50
2023-02-11T09:10:58.889Z,99985.69
2023-02-11T09:13:03.882Z,99981.47
2023-02-11T09:15:09.468Z,99980.50
2023-02-11T09:17:14.296Z,99972.00
2023-02-11T09:19:19.493Z,99958.41
2023-02-11T09:21:24.056Z,99964.28
2023-02-11T09:23:28.859Z,99954.88
2023-02-11T09:25:36.288Z,99968.66
2023-02-11T09:27:41.117Z,99958.41
2023-02-11T09:29:45.904Z,99966.13
2023-02-11T09:31:51.132Z,99958.44
2023-02-11T09:33:57.285Z,99963.66
2023-02-11T09:36:04.050Z,99967.94
2023-02-11T09:38:08.900Z,99977.50
2023-02-11T09:40:15.301Z,99971.56
2023-02-11T09:42:48.069Z,99977.72
2023-02-11T09:44:53.601Z,99979.53
2023-02-11T09:47:00.962Z,99976.22
2023-02-11T09:49:07.546Z,99971.97
2023-02-11T09:51:23.930Z,99970.22
2023-02-11T09:53:30.634Z,99976.28
2023-02-11T09:55:39.874Z,99970.25
2023-02-11T09:57:47.418Z,99974.53
2023-02-11T09:59:52.252Z,99976.22
2023-02-11T10:02:01.776Z,99974.56
2023-02-11T10:04:17.037Z,99983.25
2023-02-11T10:06:41.869Z,99983.25
2023-02-11T10:09:00.256Z,99987.63
2023-02-11T10:11:29.691Z,99979.00
2023-02-11T10:13:50.462Z,99985.91
2023-02-11T10:16:02.266Z,99986.78
2023-02-11T10:18:42.329Z,99985.91
2023-02-11T10:20:52.785Z,99982.44
2023-02-11T10:23:01.358Z,99975.56
2023-02-11T10:25:20.136Z,99986.78
2023-02-11T10:27:31.432Z,99989.38
2023-02-11T10:29:44.936Z,100000.59
2023-02-11T10:31:51.431Z,100004.88
2023-02-11T10:34:02.577Z,99988.47
2023-02-11T10:36:09.019Z,99990.19
2023-02-11T10:38:14.900Z,99985.00
2023-02-11T10:40:22.560Z,99990.19
2023-02-11T10:42:29.614Z,99978.09
2023-02-11T10:44:40.958Z,99990.16
2023-02-11T10:46:46.386Z,99989.28
2023-02-11T10:48:54.314Z,99992.75
2023-02-11T10:51:12.304Z,99990.16
2023-02-11T10:53:24.506Z,99985.88
2023-02-11T10:55:30.665Z,99993.66
2023-02-11T10:57:44.755Z,99993.66
2023-02-11T10:59:52.289Z,99989.34
2023-02-11T11:02:01.074Z,99978.13
2023-02-11T11:04:05.964Z,99977.28
2023-02-11T11:06:12.772Z,99978.16
2023-02-11T11:08:18.629Z,99975.56
2023-02-11T11:10:30.849Z,99978.13
2023-02-11T11:12:49.558Z,99971.22
2023-02-11T11:15:01.395Z,99984.19
2023-02-11T11:17:16.179Z,99973.81
2023-02-11T11:19:25.445Z,99979.00
2023-02-11T11:21:36.498Z,99973.81
2023-02-11T11:23:42.803Z,99976.41
2023-02-11T11:25:49.436Z,99979.88
2023-02-11T11:27:55.173Z,99980.72
2023-02-11T11:30:03.551Z,99977.28
2023-02-11T11:32:15.327Z,99983.31
2023-02-11T11:34:31.840Z,99991.97
2023-02-11T11:36:40.166Z,99985.94
2023-02-11T11:38:48.554Z,99989.34
2023-02-11T11:41:32.949Z,99983.34
2023-02-11T11:43:37.812Z,99972.09
2023-02-11T11:45:56.261Z,99972.97
2023-02-11T11:48:06.638Z,99974.72
2023-02-11T11:50:27.974Z,99977.28
2023-02-11T11:52:42.881Z,99970.38
2023-02-11T11:54:53.460Z,99970.38
2023-02-11T11:57:06.097Z,99972.97
2023-02-11T11:59:17.515Z,99964.31
2023-02-11T12:01:37.323Z,99961.75
2023-02-11T12:04:15.694Z,99971.22
2023-02-11T12:06:34.583Z,99972.97
2023-02-11T12:08:53.703Z,99978.13
2023-02-11T12:11:12.564Z,99982.44
2023-02-11T12:13:36.800Z,99974.69
2023-02-11T12:15:52.318Z,99970.38
2023-02-11T12:18:09.178Z,99972.97
2023-02-11T12:20:27.266Z,99972.09
2023-02-11T12:22:46.265Z,99970.38
2023-02-11T12:25:06.636Z,99967.78
2023-02-11T12:27:18.797Z,99969.50
2023-02-11T12:29:34.942Z,99977.28
2023-02-11T12:31:52.712Z,99972.09
2023-02-11T12:34:36.927Z,99973.84
2023-02-11T12:37:02.541Z,99970.38
2023-02-11T12:39:22.237Z,99967.78
2023-02-11T12:41:56.473Z,99958.28
2023-02-11T12:44:02.021Z,99953.94
2023-02-11T12:46:28.812Z,99955.63
2023-02-11T12:48:59.852Z,99955.59
2023-02-11T12:51:15.872Z,99944.38
2023-02-11T12:53:35.018Z,99946.97
2023-02-11T12:55:43.907Z,99948.66
2023-02-11T12:57:51.538Z,99950.38
2023-02-11T13:00:04.393Z,99948.72
2023-02-11T13:02:21.574Z,99937.47
2023-02-11T13:04:31.799Z,99937.44
2023-02-11T13:06:44.601Z,99932.28
2023-02-11T13:08:52.214Z,99926.34
2023-02-11T13:11:00.630Z,99919.41
2023-02-11T13:13:21.007Z,99916.84
2023-02-11T13:15:26.830Z,99913.38
2023-02-11T13:17:36.502Z,99915.06
2023-02-11T13:19:46.950Z,99920.22
2023-02-11T13:22:12.220Z,99926.31
2023-02-11T13:24:26.580Z,99913.38
2023-02-11T13:26:36.854Z,99915.06
2023-02-11T13:28:47.698Z,99915.09
2023-02-11T13:31:02.468Z,99908.22
2023-02-11T13:33:22.506Z,99909.94
2023-02-11T13:35:33.019Z,99913.41
2023-02-11T13:37:42.387Z,99911.66
2023-02-11T13:39:59.729Z,99917.72
2023-02-11T13:42:07.558Z,99926.34
2023-02-11T13:44:29.022Z,99931.53
2023-02-11T13:46:54.331Z,99932.41
2023-02-11T13:49:00.795Z,99937.59
2023-02-11T13:51:09.094Z,99930.69
2023-02-11T13:53:17.355Z,99931.53
2023-02-11T13:55:26.352Z,99934.13
2023-02-11T13:57:41.945Z,99927.22
2023-02-11T13:59:48.941Z,99931.53
2023-02-11T14:02:21.906Z,99930.69
2023-02-11T14:04:41.088Z,99944.50
2023-02-11T14:07:38.295Z,99936.72
2023-02-11T14:09:45.787Z,99946.22
2023-02-11T14:11:55.445Z,99934.13
2023-02-11T14:14:19.233Z,99942.78
2023-02-11T14:16:37.484Z,99933.28
2023-02-11T14:19:01.962Z,99931.53
2023-02-11T14:21:15.674Z,99935.88
2023-02-11T14:23:31.139Z,99935.00
2023-02-11T14:25:41.822Z,99936.72
2023-02-11T14:27:55.371Z,99932.41
2023-02-11T14:30:23.521Z,99925.53
2023-02-11T14:32:42.759Z,99924.63
2023-02-11T14:34:59.863Z,99931.56
2023-02-11T14:37:17.134Z,99923.78
2023-02-11T14:39:33.529Z,99929.81
2023-02-11T14:41:44.586Z,99924.63
2023-02-11T14:43:55.465Z,99921.19
2023-02-11T14:46:01.627Z,99924.63
2023-02-11T14:48:11.666Z,99928.97
2023-02-11T14:50:22.163Z,99922.91
2023-02-11T14:52:31.392Z,99922.03
2023-02-11T14:54:37.935Z,99922.03
2023-02-11T14:56:46.937Z,99930.69
2023-02-11T14:58:54.559Z,99940.16
2023-02-11T15:01:02.036Z,99936.72
2023-02-11T15:03:07.069Z,99925.50
2023-02-11T15:05:26.231Z,99929.81
2023-02-11T15:07:31.320Z,99942.75
2023-02-11T15:09:43.392Z,99940.16
2023-02-11T15:11:52.337Z,99947.91
2023-02-11T15:13:59.854Z,99946.19
2023-02-11T15:16:10.119Z,99950.50
2023-02-11T15:18:24.332Z,99955.66
2023-02-11T15:20:32.033Z,99954.81
2023-02-11T15:22:43.324Z,99960.84
2023-02-11T15:24:48.600Z,99951.38
2023-02-11T15:27:01.270Z,99956.56
2023-02-11T15:29:06.161Z,99953.13
2023-02-11T15:31:19.366Z,99946.22
2023-02-11T15:33:26.176Z,99949.66
2023-02-11T15:35:35.197Z,99951.38
2023-02-11T15:37:40.118Z,99960.00
2023-02-11T15:39:45.595Z,99960.84
2023-02-11T15:41:53.479Z,99962.59
2023-02-11T15:44:00.992Z,99957.44
2023-02-11T15:46:06.145Z,99951.41
2023-02-11T15:48:15.266Z,99960.00
2023-02-11T15:50:24.270Z,99967.78
2023-02-11T15:52:31.024Z,99965.19
2023-02-11T15:54:35.952Z,99952.25
2023-02-11T15:56:44.359Z,99964.31
2023-02-11T15:58:52.087Z,99964.31
2023-02-11T16:01:00.210Z,99969.53
2023-02-11T16:03:05.407Z,99971.22
2023-02-11T16:05:12.503Z,99980.72
2023-02-11T16:07:41.555Z,99974.69
2023-02-11T16:09:46.660Z,99978.13
2023-02-11T16:11:58.965Z,99979.00
2023-02-11T16:14:07.113Z,99979.03
2023-02-11T16:16:24.876Z,99983.34
2023-02-11T16:18:39.544Z,99985.03
2023-02-11T16:20:50.600Z,99992.78
2023-02-11T16:22:56.013Z,99992.81
2023-02-11T16:25:02.599Z,99984.19
2023-02-11T16:27:11.217Z,99983.31
2023-02-11T16:29:18.712Z,99989.34
2023-02-11T16:31:26.516Z,99991.97
2023-02-11T16:33:31.816Z,99995.38
2023-02-11T16:35:37.515Z,100000.56
2023-02-11T16:37:42.433Z,100001.47
2023-02-11T16:39:47.729Z,100000.56
2023-02-11T16:41:53.848Z,99995.38
2023-02-11T16:44:01.454Z,100002.31
2023-02-11T16:46:08.932Z,100010.94
2023-02-11T16:48:20.937Z,100011.78
2023-02-11T16:50:28.522Z,100009.19
2023-02-11T16:52:33.497Z,100008.31
2023-02-11T16:54:38.316Z,100011.75
2023-02-11T16:56:43.712Z,100017.78
2023-02-11T16:58:48.720Z,100009.19
2023-02-11T17:00:54.124Z,100005.75
2023-02-11T17:02:59.547Z,100015.25
2023-02-11T17:05:09.416Z,100012.59
2023-02-11T17:07:14.655Z,100016.91
2023-02-11T17:09:22.565Z,100017.75
2023-02-11T17:11:27.382Z,100028.13
2023-02-11T17:13:32.313Z,100029.81
2023-02-11T17:15:39.625Z,100024.66
2023-02-11T17:17:45.939Z,100023.78
2023-02-11T17:19:51.452Z,100029.81
2023-02-11T17:21:58.992Z,100031.53
2023-02-11T17:24:03.959Z,100025.50
2023-02-11T17:26:09.256Z,100035.84
2023-02-11T17:28:13.960Z,100031.50
2023-02-11T17:30:19.690Z,100029.78
2023-02-11T17:32:24.968Z,100037.50
2023-02-11T17:34:30.320Z,100032.31
2023-02-11T17:36:36.720Z,100034.06
2023-02-11T17:38:44.262Z,100031.47
2023-02-11T17:40:49.234Z,100025.47
2023-02-11T17:42:54.089Z,100026.31
2023-02-11T17:44:59.054Z,100031.47
2023-02-11T17:47:03.860Z,100044.38
2023-02-11T17:49:08.863Z,100038.31
2023-02-11T17:51:25.344Z,100042.63
2023-02-11T17:53:30.130Z,100045.25
2023-02-11T17:55:38.914Z,100039.16
2023-02-11T17:57:43.813Z,100037.44
2023-02-11T17:59:49.248Z,100040.88
2023-02-11T18:01:54.885Z,100037.47
2023-02-11T18:03:59.634Z,100038.25
2023-02-11T18:06:06.206Z,100041.69
2023-02-11T18:08:11.241Z,100033.09
2023-02-11T18:10:16.455Z,100034.81
2023-02-11T18:12:25.798Z,100035.69
2023-02-11T18:14:31.004Z,100039.13
2023-02-11T18:16:36.654Z,100042.53
2023-02-11T18:18:41.774Z,100038.25
2023-02-11T18:20:48.299Z,100039.09
2023-02-11T18:22:56.301Z,100043.47
2023-02-11T18:25:01.506Z,100045.16
2023-02-11T18:27:06.516Z,100044.28
2023-02-11T18:29:14.289Z,100050.34
2023-02-11T18:31:20.277Z,100045.16
2023-02-11T18:33:25.263Z,100052.94
2023-02-11T18:35:30.465Z,100054.63
2023-02-11T18:37:35.069Z,100050.25
2023-02-11T18:39:40.494Z,100054.56
2023-02-11T18:41:45.404Z,100053.72
2023-02-11T18:43:50.208Z,100054.56
2023-02-11T18:46:00.213Z,100065.81
2023-02-11T18:48:05.409Z,100058.09
2023-02-11T18:50:13.873Z,100060.72
2023-02-11T18:52:18.875Z,100068.47
2023-02-11T18:54:23.775Z,100062.44
2023-02-11T18:56:29.484Z,100060.75
2023-02-11T18:58:34.333Z,100062.47
2023-02-11T19:00:41.458Z,100060.72
2023-02-11T19:02:49.163Z,100061.56
2023-02-11T19:04:56.498Z,100059.91
2023-02-11T19:07:04.354Z,100059.91
2023-02-11T19:09:12.162Z,100065.09
2023-02-11T19:11:18.864Z,100061.66
2023-02-11T19:13:23.765Z,100068.56
2023-02-11T19:15:29.582Z,100072.00
2023-02-11T19:17:34.418Z,100074.56
2023-02-11T19:19:41.997Z,100071.13
2023-02-11T19:21:48.950Z,100088.38
2023-02-11T19:23:56.048Z,100080.66
2023-02-11T19:26:01.825Z,100083.25
2023-02-11T19:28:07.043Z,100084.16
2023-02-11T19:30:12.942Z,100070.34
2023-02-11T19:32:18.318Z,100078.16
2023-02-11T19:34:24.152Z,100083.31
2023-02-11T19:36:32.136Z,100079.88
2023-02-11T19:38:37.554Z,100084.25
2023-02-11T19:40:42.407Z,100087.72
2023-02-11T19:42:48.043Z,100092.00
2023-02-11T19:44:53.016Z,100086.88
2023-02-11T19:47:01.306Z,100083.44
2023-02-11T19:49:07.132Z,100086.03
2023-02-11T19:51:13.527Z,100092.94
2023-02-11T19:53:21.292Z,100092.09
2023-02-11T19:55:26.194Z,100092.06
2023-02-11T19:57:31.132Z,100096.34
2023-02-11T19:59:36.067Z,100099.81
2023-02-11T20:01:41.118Z,100114.47
2023-02-11T20:03:47.411Z,100113.63
2023-02-11T20:05:52.529Z,100117.03
2023-02-11T20:08:03.646Z,100118.78
2023-02-11T20:10:12.114Z,100118.75
2023-02-11T20:12:17.038Z,100121.28
2023-02-11T20:14:22.028Z,100121.28
2023-02-11T20:16:46.196Z,100121.28
2023-02-11T20:18:55.890Z,100115.22
2023-02-11T20:21:01.842Z,100122.97
2023-02-11T20:23:06.773Z,100130.75
2023-02-11T20:25:14.169Z,100124.69
2023-02-11T20:27:20.125Z,100116.97
2023-02-11T20:29:25.676Z,100111.78
2023-02-11T20:31:32.223Z,100114.38
2023-02-11T20:33:37.598Z,100112.66
2023-02-11T20:35:42.473Z,100109.22
2023-02-11T20:37:47.291Z,100112.63
2023-02-11T20:39:54.717Z,100113.44
2023-02-11T20:42:02.156Z,100116.94
2023-02-11T20:44:08.954Z,100122.94
2023-02-11T20:46:13.807Z,100134.13
2023-02-11T20:48:18.784Z,100132.38
2023-02-11T20:50:23.823Z,100130.59
2023-02-11T20:52:28.839Z,100132.31
2023-02-11T20:54:33.697Z,100134.03
2023-02-11T20:56:39.582Z,100142.59
2023-02-11T20:58:47.364Z,100146.94
2023-02-11T21:00:52.469Z,100150.41
2023-02-11T21:03:00.270Z,100152.19
2023-02-11T21:05:05.129Z,100144.44
2023-02-11T21:07:10.053Z,100138.41
2023-02-11T21:09:17.490Z,100141.00
2023-02-11T21:11:22.591Z,100152.22
2023-02-11T21:13:27.823Z,100155.66
2023-02-11T21:15:35.052Z,100162.59
2023-02-11T21:17:40.121Z,100167.78
2023-02-11T21:19:45.320Z,100172.94
2023-02-11T21:21:50.179Z,100168.66
2023-02-11T21:23:56.196Z,100172.94
2023-02-11T21:26:01.136Z,100166.91
2023-02-11T21:28:06.454Z,100160.88
2023-02-11T21:30:12.161Z,100162.53
2023-02-11T21:32:19.608Z,100171.16
2023-02-11T21:34:24.664Z,100175.44
2023-02-11T21:36:31.148Z,100179.75
2023-02-11T21:38:36.421Z,100175.50
2023-02-11T21:40:41.800Z,100173.84
2023-02-11T21:42:46.712Z,100178.19
2023-02-11T21:44:51.508Z,100170.44
2023-02-11T21:46:56.565Z,100175.59
2023-02-11T21:49:04.140Z,100178.13
2023-02-11T21:51:11.606Z,100179.84
2023-02-11T21:53:17.296Z,100173.81
2023-02-11T21:55:22.282Z,100175.50
2023-02-11T21:57:27.154Z,100172.94
2023-02-11T21:59:33.583Z,100174.69
2023-02-11T22:01:38.531Z,100181.63
2023-02-11T22:03:43.442Z,100179.88
2023-02-11T22:05:50.991Z,100174.78
2023-02-11T22:07:55.864Z,100178.25
2023-02-11T22:10:00.668Z,100171.41
2023-02-11T22:12:05.533Z,100166.22
2023-02-11T22:14:10.671Z,100168.84
2023-02-11T22:16:17.088Z,100180.06
2023-02-11T22:18:21.975Z,100174.00
2023-02-11T22:20:26.831Z,100169.66
2023-02-11T22:22:34.782Z,100168.81
2023-02-11T22:24:40.909Z,100165.34
2023-02-11T22:26:45.714Z,100161.88
2023-02-11T22:28:50.989Z,100167.94
2023-02-11T22:30:56.012Z,100172.22
2023-02-11T22:33:01.030Z,100173.09
2023-02-11T22:35:05.939Z,100176.56
2023-02-11T22:37:10.859Z,100175.72
2023-02-11T22:39:20.073Z,100178.28
2023-02-11T22:41:26.186Z,100182.59
2023-02-11T22:43:31.035Z,100191.25
2023-02-11T22:45:36.601Z,100191.25
2023-02-11T22:47:41.856Z,100183.47
2023-02-11T22:49:46.412Z,100183.47
2023-02-11T22:51:51.294Z,100189.53
2023-02-11T22:53:57.899Z,100190.38
2023-02-11T22:56:09.586Z,100193.00
2023-02-11T22:58:14.539Z,100193.84
2023-02-11T23:00:21.013Z,100195.56
2023-02-11T23:02:26.058Z,100195.53
2023-02-11T23:04:30.926Z,100202.41
2023-02-11T23:06:35.905Z,100208.44
2023-02-11T23:08:44.146Z,100212.72
2023-02-11T23:10:49.591Z,100209.28
2023-02-11T23:12:57.023Z,100205.03
2023-02-11T23:15:04.886Z,100192.94
2023-02-11T23:17:09.903Z,100193.81
2023-02-11T23:19:14.757Z,100193.81
2023-02-11T23:21:25.221Z,100198.09
2023-02-11T23:23:30.100Z,100198.94
2023-02-11T23:25:35.444Z,100200.69
2023-02-11T23:27:40.536Z,100197.16
2023-02-11T23:29:48.009Z,100205.72
2023-02-11T23:31:53.057Z,100200.53
2023-02-11T23:34:01.110Z,100202.25
2023-02-11T23:36:06.063Z,100206.56
2023-02-11T23:38:10.949Z,100205.72
2023-02-11T23:40:16.825Z,100195.28
2023-02-11T23:42:21.646Z,100193.53
2023-02-11T23:44:26.496Z,100199.44
2023-02-11T23:46:33.939Z,100217.47
2023-02-11T23:48:40.600Z,100220.84
2023-02-11T23:50:45.662Z,100211.44
2023-02-11T23:52:50.622Z,100216.66
2023-02-11T23:54:55.477Z,100212.34
2023-02-11T23:57:00.676Z,100217.50
2023-02-11T23:59:05.493Z,100228.72
